createdAt,value
2023-04-16T00:02:14.168Z,10.60
2023-04-16T00:07:39.066Z,12.35
2023-04-16T00:13:06.058Z,13.75
2023-04-16T00:18:31.049Z,11.00
2023-04-16T00:23:55.062Z,7.95
2023-04-16T00:29:23.059Z,5.18
2023-04-16T00:34:47.064Z,5.10
2023-04-16T00:40:12.128Z,3.70
2023-04-16T00:45:39.066Z,2.90
2023-04-16T00:51:05.060Z,2.80
2023-04-16T00:56:31.067Z,2.97
2023-04-16T01:01:59.208Z,2.58
2023-04-16T01:07:23.087Z,2.50
2023-04-16T01:12:48.080Z,2.30
2023-04-16T01:18:15.086Z,2.30
2023-04-16T01:23:43.104Z,2.33
2023-04-16T01:29:07.295Z,2.22
2023-04-16T01:34:32.083Z,2.55
2023-04-16T01:39:59.123Z,2.40
2023-04-16T01:45:24.115Z,2.58
2023-04-16T01:50:49.091Z,2.72
2023-04-16T01:56:17.112Z,3.00
2023-04-16T02:01:41.105Z,3.50
2023-04-16T02:07:06.100Z,4.07
2023-04-16T02:12:33.100Z,4.97
2023-04-16T02:18:02.145Z,4.38
2023-04-16T02:23:27.103Z,5.03
2023-04-16T02:28:55.104Z,4.70
2023-04-16T02:34:27.092Z,4.50
2023-04-16T02:39:53.106Z,4.40
2023-04-16T02:45:22.142Z,3.50
2023-04-16T02:50:47.167Z,3.50
2023-04-16T02:56:12.094Z,3.28
2023-04-16T03:01:40.144Z,3.10
2023-04-16T03:07:04.115Z,2.65
2023-04-16T03:12:29.120Z,2.67
2023-04-16T03:17:56.180Z,2.95
2023-04-16T03:23:27.126Z,2.88
2023-04-16T03:28:52.135Z,2.17
2023-04-16T03:34:21.126Z,2.30
2023-04-16T03:39:46.130Z,2.58
2023-04-16T03:45:11.168Z,2.58
2023-04-16T03:50:40.162Z,2.20
2023-04-16T03:56:06.169Z,2.42
2023-04-16T04:01:31.128Z,3.60
2023-04-16T04:06:58.170Z,5.47
2023-04-16T04:12:23.177Z,5.70
2023-04-16T04:17:47.204Z,6.97
2023-04-16T04:23:21.156Z,7.82
2023-04-16T04:28:46.205Z,11.18
2023-04-16T04:34:11.168Z,11.52
2023-04-16T04:39:39.168Z,12.02
2023-04-16T04:45:04.161Z,11.52
2023-04-16T04:50:29.169Z,12.55
2023-04-16T04:56:01.744Z,11.93
2023-04-16T05:01:34.244Z,11.85
2023-04-16T05:06:58.196Z,12.27
2023-04-16T05:12:26.210Z,10.93
2023-04-16T05:17:50.257Z,11.95
2023-04-16T05:23:22.316Z,12.40
2023-04-16T05:28:50.186Z,11.02
2023-04-16T05:34:14.240Z,10.77
2023-04-16T05:39:39.232Z,10.70
2023-04-16T05:45:07.216Z,11.38
2023-04-16T05:50:32.201Z,11.20
2023-04-16T05:55:56.239Z,9.93
2023-04-16T06:01:24.231Z,9.05
2023-04-16T06:06:48.218Z,9.68
2023-04-16T06:12:14.232Z,9.63
2023-04-16T06:17:41.306Z,10.85
2023-04-16T06:23:12.207Z,8.48
2023-04-16T06:28:37.212Z,8.70
2023-04-16T06:34:04.244Z,9.55
2023-04-16T06:39:29.235Z,10.02
2023-04-16T06:44:53.241Z,10.50
2023-04-16T06:50:21.234Z,10.55
2023-04-16T06:55:45.240Z,11.18
2023-04-16T07:01:10.348Z,10.85
2023-04-16T07:06:38.287Z,10.27
2023-04-16T07:12:04.241Z,7.22
2023-04-16T07:17:28.343Z,10.10
2023-04-16T07:23:02.249Z,6.80
2023-04-16T07:28:27.267Z,3.22
2023-04-16T07:33:51.265Z,2.90
2023-04-16T07:39:20.252Z,2.83
2023-04-16T07:44:45.284Z,2.72
2023-04-16T07:50:10.287Z,2.55
2023-04-16T07:55:37.268Z,2.60
2023-04-16T08:01:02.294Z,1.88
2023-04-16T08:06:26.269Z,1.88
2023-04-16T08:11:56.280Z,2.00
2023-04-16T08:17:20.282Z,2.42
2023-04-16T08:22:51.281Z,2.60
2023-04-16T08:28:19.269Z,2.30
2023-04-16T08:33:43.266Z,2.50
2023-04-16T08:39:08.492Z,2.88
2023-04-16T08:44:41.304Z,4.10
2023-04-16T08:50:09.324Z,4.72
2023-04-16T08:55:37.323Z,4.93
2023-04-16T09:01:05.293Z,3.78
2023-04-16T09:06:31.298Z,4.20
2023-04-16T09:11:59.296Z,3.70
2023-04-16T12:51:27.442Z,5.53
2023-04-16T12:56:52.459Z,6.40
2023-04-16T13:02:17.658Z,5.95
2023-04-16T13:07:45.424Z,6.53
2023-04-16T13:13:09.534Z,6.00
2023-04-16T13:18:35.447Z,5.88
2023-04-16T13:24:03.474Z,6.13
2023-04-16T13:29:28.479Z,7.20
2023-04-16T13:34:53.484Z,7.95
2023-04-16T13:40:22.463Z,8.23
2023-04-16T13:45:46.455Z,8.18
2023-04-16T13:51:12.436Z,9.40
2023-04-16T13:56:39.489Z,9.23
2023-04-16T14:02:05.491Z,8.63
2023-04-16T14:07:33.506Z,8.18
2023-04-16T14:13:01.447Z,9.20
2023-04-16T14:18:27.483Z,8.82
2023-04-16T14:29:19.460Z,10.30
2023-04-16T14:34:44.460Z,11.18
2023-04-16T14:40:08.585Z,12.45
2023-04-16T14:45:37.502Z,14.13
2023-04-16T14:51:02.505Z,17.20
2023-04-16T14:56:28.473Z,17.90
2023-04-16T15:01:55.501Z,16.20
2023-04-16T19:05:03.588Z,13.85
2023-04-16T19:10:28.612Z,14.32
2023-04-16T19:15:53.642Z,14.15
2023-04-16T19:21:21.632Z,12.60
2023-04-16T19:26:45.635Z,13.60
2023-04-16T19:32:11.416Z,14.65
2023-04-16T19:37:39.635Z,14.48
2023-04-16T19:43:04.656Z,11.85
2023-04-16T19:48:29.628Z,10.27
2023-04-16T19:53:57.640Z,10.40
2023-04-16T19:59:21.650Z,10.23
2023-04-16T20:04:55.605Z,9.80
2023-04-16T20:10:23.621Z,8.15
2023-04-16T20:15:47.650Z,7.30
2023-04-16T20:21:13.656Z,7.50
2023-04-16T20:26:43.695Z,8.75
2023-04-16T20:32:11.460Z,9.07
2023-04-16T20:37:35.620Z,9.48
2023-04-16T20:43:03.693Z,10.07
2023-04-16T20:48:27.641Z,10.18
2023-04-16T20:53:52.724Z,11.05
2023-04-16T20:59:19.726Z,11.30
